Chichester, NH (03258)

11:59 PM EDT on September 02, 2015 (GMT -0400)
KNHCHICH2 | | Change Station
CLOSE
Current Station
Personal Weather Station
Location: Chichester, NH
Elevation: 689 ft
Nearby Weather Stations

Elev 689 ft 43.21 °N, 71.41 °W | Updated 10 minutes ago

Clear
Clear
69.4 °F
Feels Like 69.4 °F
N
0.0
Wind Variable Wind from ENE
Gusts 0.0 mph

Today
High -- | Low -- °F
--% Chance of Precip.
Yesterday
High -- | Low -- °F
Precip. -- in
6:10 AM 7:19 PM
Waning Gibbous, 74% visible
Pressure 29.87 in
Visibility 8.0 miles
Clouds Clear
Dew Point 66 °F
Humidity 90%
Rainfall 0.00 in
Snow Depth Not available.
UV 0 out of 12
Pollen 8.00 out of 12
Air Quality Not available.
Flu Activity Not available.
METAR KCON 030351Z AUTO 00000KT 8SM CLR 19/17 A2987 RMK AO2 SLP115 T01890172
Pressure 29.87 in
Visibility 8.0 miles
Clouds Clear
Dew Point 66 °F
Humidity 90%
Rainfall 0.00 in
Snow Depth Not available.
UV 0 out of 12
Pollen 8.00 out of 12
Air Quality Not available.
Flu Activity Not available.
METAR KCON 030351Z AUTO 00000KT 8SM CLR 19/17 A2987 RMK AO2 SLP115 T01890172

10-Day Weather Forecast

×

Almanac

Astronomy

Sep. 02, 2015 Rise Set
Actual Time
Civil Twilight
Nautical Twilight
Astronomical Twilight
Moon
Length of Visible Light
Length of Day
Tomorrow will be .
, % of the Moon is Illuminated

Today's Extremes

State Highs State Lows

Community

WunderPhotos

Upload Photos

1,851,903 photos uploaded!

WunderBlogs® & News

Nearby

Air Quality

  Air Quality AQ Index Pollutant
Not available.

Snow Depth

Station Depth Elevation

Earthquake Activity

City Distance Mag. Time & Date
Minimum magnitude displayed is 2.5.

Coastal Water Temperatures

Place Temperature

Stations

Nearby Weather Stations

Station Location Temp. Windchill Dew Point Humidity Wind Precip. Elev Updated Type